Atlantic Mine, Michigan
Current Conditions -  °F | °C
As of 11:03 AM on Monday 24 Nov 2014 (Local Time) from KCMX Reporting Station
Light Snow Light Snow  
Wind Chill: -11°   Ceiling: 1000
Heat Index: -3°   Visibility: 0.5mi
Dew Point: -4°   Wind: 24mph
Humidity: 89%   Direction: 340°NNW
Pressure: 29.12"   Gusts: 36mph
Location:  47.1°N, 88.63°W
Report Text: KCMX 241603Z AUTO 34021G31KT 1/2SM -SN FZFG BKN010 OVC013 M03/M04 A2912 RMK AO2 PK WND 34031/1557 P0000 T10281044
Loading
Personal Weather Stations






























Interactive Weather Map New forecast layout! Learn more

10-Day Weather Forecast

Advertisements
Track Severe Weather on mobile